createdAt,value
2022-10-07T00:01:06.987Z,12.80
2022-10-07T00:03:36.023Z,12.90
2022-10-07T00:06:06.071Z,12.80
2022-10-07T00:08:35.756Z,12.90
2022-10-07T00:11:16.238Z,12.90
2022-10-07T00:13:45.740Z,12.90
2022-10-07T00:16:16.032Z,13.00
2022-10-07T00:18:44.825Z,13.00
2022-10-07T00:21:14.937Z,13.00
2022-10-07T00:23:44.407Z,13.10
2022-10-07T00:26:16.537Z,13.10
2022-10-07T00:28:44.996Z,13.10
2022-10-07T00:31:16.483Z,13.10
2022-10-07T00:33:45.214Z,13.10
2022-10-07T00:36:15.717Z,13.10
2022-10-07T00:38:43.689Z,13.10
2022-10-07T00:41:18.902Z,13.10
2022-10-07T00:44:42.532Z,13.10
2022-10-07T00:47:15.286Z,13.10
2022-10-07T00:49:47.354Z,13.10
2022-10-07T00:52:17.413Z,13.10
2022-10-07T00:54:45.478Z,13.10
2022-10-07T00:57:15.048Z,13.10
2022-10-07T00:59:43.023Z,13.20
2022-10-07T01:02:11.040Z,13.20
2022-10-07T01:04:40.423Z,13.20
2022-10-07T01:07:08.454Z,13.20
2022-10-07T01:09:36.671Z,13.20
2022-10-07T01:12:12.879Z,13.10
2022-10-07T01:14:54.848Z,13.20
2022-10-07T01:17:26.862Z,13.20
2022-10-07T01:20:17.260Z,13.20
2022-10-07T01:22:56.792Z,13.20
2022-10-07T01:25:33.392Z,13.20
2022-10-07T01:28:08.134Z,13.20
2022-10-07T01:30:41.334Z,13.30
2022-10-07T01:33:15.077Z,13.20
2022-10-07T01:35:46.413Z,13.30
2022-10-07T01:38:17.701Z,13.30
2022-10-07T01:40:51.522Z,13.30
2022-10-07T01:43:23.143Z,13.40
2022-10-07T01:45:53.211Z,13.30
2022-10-07T01:48:21.202Z,13.30
2022-10-07T01:50:50.570Z,13.30
2022-10-07T01:53:33.225Z,13.40
2022-10-07T01:56:18.604Z,13.30
2022-10-07T01:59:07.057Z,13.30
2022-10-07T02:01:44.001Z,13.30
2022-10-07T02:04:33.800Z,13.30
2022-10-07T02:07:10.316Z,13.30
2022-10-07T02:09:42.421Z,13.20
2022-10-07T02:12:15.306Z,13.20
2022-10-07T02:14:51.480Z,13.20
2022-10-07T02:17:21.723Z,13.20
2022-10-07T02:19:54.339Z,13.20
2022-10-07T02:22:25.910Z,13.20
2022-10-07T02:24:58.905Z,13.20
2022-10-07T02:27:30.116Z,13.20
2022-10-07T02:30:03.636Z,13.20
2022-10-07T02:32:32.944Z,13.20
2022-10-07T02:35:06.321Z,13.20
2022-10-07T02:37:37.834Z,13.10
2022-10-07T02:40:12.258Z,13.10
2022-10-07T02:42:48.317Z,13.10
2022-10-07T02:45:26.481Z,13.10
2022-10-07T02:48:00.788Z,13.00
2022-10-07T02:50:35.428Z,13.00
2022-10-07T02:53:04.344Z,13.00
2022-10-07T02:55:34.912Z,13.00
2022-10-07T02:58:06.377Z,13.00
2022-10-07T03:00:40.342Z,13.00
2022-10-07T03:03:08.330Z,13.00
2022-10-07T03:05:36.737Z,13.00
2022-10-07T03:08:07.528Z,12.90
2022-10-07T03:10:35.681Z,12.90
2022-10-07T03:13:04.973Z,12.90
2022-10-07T03:15:39.777Z,12.90
2022-10-07T03:18:26.426Z,13.00
2022-10-07T03:20:55.446Z,13.10
2022-10-07T03:23:23.978Z,13.20
2022-10-07T03:25:53.491Z,13.10
2022-10-07T03:28:22.292Z,13.10
2022-10-07T03:30:50.838Z,13.10
2022-10-07T03:33:24.962Z,13.10
2022-10-07T03:35:53.947Z,13.10
2022-10-07T03:38:22.604Z,13.10
2022-10-07T03:40:50.520Z,13.00
2022-10-07T03:43:18.461Z,13.00
2022-10-07T03:45:51.179Z,13.10
2022-10-07T03:48:20.549Z,13.10
2022-10-07T03:50:52.210Z,13.20
2022-10-07T03:53:20.604Z,13.20
2022-10-07T03:55:48.592Z,13.20
2022-10-07T03:58:16.689Z,13.30
2022-10-07T04:00:44.638Z,13.40
2022-10-07T04:03:12.649Z,13.40
2022-10-07T04:05:43.396Z,13.50
2022-10-07T04:08:15.756Z,13.50
2022-10-07T04:10:43.685Z,13.60
2022-10-07T04:13:11.579Z,13.50
2022-10-07T04:15:40.369Z,13.60
2022-10-07T04:18:08.349Z,13.60
2022-10-07T04:20:38.744Z,13.60
2022-10-07T04:23:08.248Z,13.60
2022-10-07T04:25:37.570Z,13.70
2022-10-07T04:28:07.492Z,13.70
2022-10-07T04:30:40.645Z,13.70
2022-10-07T04:33:08.751Z,13.70
2022-10-07T04:35:38.604Z,13.70
2022-10-07T04:38:10.007Z,13.70
2022-10-07T04:40:40.957Z,13.70
2022-10-07T04:43:23.290Z,13.60
2022-10-07T04:45:54.412Z,13.60
2022-10-07T04:48:24.327Z,13.40
2022-10-07T04:50:52.946Z,13.40
2022-10-07T04:53:22.314Z,13.40
2022-10-07T04:55:52.036Z,13.40
2022-10-07T04:58:20.790Z,13.30
2022-10-07T05:00:50.673Z,13.30
2022-10-07T05:03:20.272Z,13.40
2022-10-07T05:05:50.168Z,13.40
2022-10-07T05:08:20.185Z,13.40
2022-10-07T05:10:49.510Z,13.40
2022-10-07T05:13:17.994Z,13.50
2022-10-07T05:15:50.063Z,13.50
2022-10-07T05:18:19.124Z,13.50
2022-10-07T05:20:47.580Z,13.60
2022-10-07T05:23:16.409Z,13.60
2022-10-07T05:25:47.728Z,13.50
2022-10-07T05:28:18.699Z,13.40
2022-10-07T05:30:46.613Z,13.40
2022-10-07T05:33:14.572Z,13.40
2022-10-07T05:35:47.194Z,13.50
2022-10-07T05:38:14.991Z,13.50
2022-10-07T05:40:42.975Z,13.50
2022-10-07T05:43:11.436Z,13.50
2022-10-07T05:45:41.032Z,13.50
2022-10-07T05:48:09.199Z,13.40
2022-10-07T05:50:37.074Z,13.40
2022-10-07T05:53:05.126Z,13.40
2022-10-07T05:55:38.049Z,13.30
2022-10-07T05:58:08.046Z,13.20
2022-10-07T06:00:41.744Z,13.20
2022-10-07T06:03:11.528Z,13.20
2022-10-07T06:05:39.617Z,13.20
2022-10-07T06:08:07.539Z,13.20
2022-10-07T06:10:53.264Z,13.10
2022-10-07T06:13:21.273Z,13.10
2022-10-07T06:15:49.191Z,13.20
2022-10-07T06:18:18.552Z,13.30
2022-10-07T06:20:54.622Z,13.30
2022-10-07T06:23:22.697Z,13.30
2022-10-07T06:25:56.277Z,13.30
2022-10-07T06:28:24.784Z,13.30
2022-10-07T06:30:53.224Z,13.20
2022-10-07T06:33:22.623Z,13.20
2022-10-07T06:35:50.559Z,13.20
2022-10-07T06:38:18.749Z,13.20
2022-10-07T06:40:58.836Z,13.20
2022-10-07T06:43:27.295Z,13.10
2022-10-07T06:45:58.841Z,13.10
2022-10-07T06:48:28.466Z,13.00
2022-10-07T06:50:58.588Z,13.10
2022-10-07T06:53:27.579Z,13.10
2022-10-07T06:55:57.801Z,13.20
2022-10-07T06:58:26.352Z,13.30
2022-10-07T07:00:54.878Z,13.30
2022-10-07T07:03:22.977Z,13.40
2022-10-07T07:05:54.905Z,13.40
2022-10-07T07:08:27.764Z,13.40
2022-10-07T07:10:56.018Z,13.50
2022-10-07T07:13:24.807Z,13.60
2022-10-07T07:15:56.887Z,13.70
2022-10-07T07:18:25.657Z,13.70
2022-10-07T07:20:55.317Z,13.80
2022-10-07T07:23:23.747Z,13.90
2022-10-07T07:25:51.648Z,14.00
2022-10-07T07:28:19.917Z,14.10
2022-10-07T07:30:49.160Z,14.20
2022-10-07T07:33:17.153Z,14.20
2022-10-07T07:35:45.474Z,14.30
2022-10-07T07:38:15.009Z,14.40
2022-10-07T07:40:42.962Z,14.50
2022-10-07T07:43:10.916Z,14.60
2022-10-07T07:45:38.988Z,14.70
2022-10-07T07:48:06.930Z,14.70
2022-10-07T07:50:34.841Z,14.70
2022-10-07T07:53:04.721Z,14.70
2022-10-07T07:55:34.063Z,14.80
2022-10-07T07:58:02.062Z,14.80
2022-10-07T08:00:30.365Z,14.80
2022-10-07T08:02:59.658Z,14.80
2022-10-07T08:05:27.658Z,14.90
2022-10-07T08:07:55.678Z,14.90
2022-10-07T08:10:23.662Z,15.00
2022-10-07T08:12:52.904Z,15.10
2022-10-07T08:15:20.822Z,15.10
2022-10-07T08:17:49.597Z,15.20
2022-10-07T08:20:17.600Z,15.20
2022-10-07T08:22:45.965Z,15.20
2022-10-07T08:25:16.799Z,15.30
2022-10-07T08:27:45.647Z,15.30
2022-10-07T08:30:15.586Z,15.40
2022-10-07T08:32:43.563Z,15.40
2022-10-07T08:35:11.526Z,15.40
2022-10-07T08:37:39.458Z,15.50
2022-10-07T08:40:08.509Z,15.50
2022-10-07T08:42:39.958Z,15.50
2022-10-07T08:45:12.484Z,15.50
2022-10-07T08:47:46.033Z,15.60
2022-10-07T08:50:19.888Z,15.70
2022-10-07T08:52:52.192Z,15.70
2022-10-07T08:55:27.149Z,15.80
2022-10-07T08:58:16.540Z,15.80
2022-10-07T09:00:51.265Z,15.80
2022-10-07T09:03:32.755Z,15.70
2022-10-07T09:06:04.922Z,15.80
2022-10-07T09:08:37.018Z,15.80
2022-10-07T09:11:16.463Z,15.80
2022-10-07T09:13:49.004Z,15.80
2022-10-07T09:16:20.646Z,15.80
2022-10-07T09:18:53.885Z,15.70
2022-10-07T09:21:25.457Z,15.70
2022-10-07T09:23:57.735Z,15.70
2022-10-07T09:26:27.576Z,15.70
2022-10-07T09:28:55.544Z,15.70
2022-10-07T09:31:25.784Z,15.80
2022-10-07T09:33:55.388Z,15.80
2022-10-07T09:36:23.423Z,15.90
2022-10-07T09:38:53.786Z,16.00
2022-10-07T09:41:31.224Z,16.10
2022-10-07T09:44:03.750Z,16.10
2022-10-07T09:46:42.155Z,16.20
2022-10-07T09:49:31.010Z,16.20
2022-10-07T09:52:01.118Z,16.30
2022-10-07T09:54:29.935Z,16.30
2022-10-07T09:56:59.783Z,16.20
2022-10-07T09:59:30.039Z,16.20
2022-10-07T10:02:00.189Z,16.00
2022-10-07T10:04:35.405Z,15.90
2022-10-07T10:07:06.533Z,15.90
2022-10-07T10:09:35.901Z,16.00
2022-10-07T10:12:15.918Z,15.90
2022-10-07T10:14:49.757Z,15.90
2022-10-07T10:17:31.708Z,15.90
2022-10-07T10:20:29.450Z,16.00
2022-10-07T10:23:00.468Z,16.00
2022-10-07T10:25:57.805Z,15.90
2022-10-07T10:28:40.510Z,15.90
2022-10-07T10:31:18.742Z,15.90
2022-10-07T10:33:55.144Z,16.00
2022-10-07T10:36:27.064Z,16.00
2022-10-07T10:39:03.614Z,16.00
2022-10-07T10:41:41.013Z,15.90
2022-10-07T10:44:42.824Z,16.00
2022-10-07T10:47:20.506Z,16.10
2022-10-07T10:50:04.192Z,16.20
2022-10-07T10:52:45.815Z,16.30
2022-10-07T10:55:26.057Z,16.20
2022-10-07T10:58:02.437Z,16.20
2022-10-07T11:00:38.007Z,16.10
2022-10-07T11:03:26.656Z,16.10
2022-10-07T11:05:56.862Z,16.20
2022-10-07T11:08:37.626Z,16.20
2022-10-07T11:11:09.077Z,16.30
2022-10-07T11:13:45.656Z,16.30
2022-10-07T11:16:17.765Z,16.30
2022-10-07T11:18:51.289Z,16.40
2022-10-07T11:21:25.977Z,16.40
2022-10-07T11:24:02.403Z,16.40
2022-10-07T11:26:36.041Z,16.50
2022-10-07T11:29:16.389Z,16.40
2022-10-07T11:31:51.580Z,16.50
2022-10-07T11:34:22.791Z,16.40
2022-10-07T11:37:02.857Z,16.40
2022-10-07T11:39:32.290Z,16.40
2022-10-07T11:42:04.937Z,16.40
2022-10-07T11:44:35.994Z,16.40
2022-10-07T11:47:07.114Z,16.40
2022-10-07T11:49:40.264Z,16.30
2022-10-07T11:52:11.798Z,16.40
2022-10-07T11:54:53.996Z,16.40
2022-10-07T11:57:23.506Z,16.40
2022-10-07T11:59:58.107Z,16.40
2022-10-07T12:02:49.638Z,16.40
2022-10-07T12:06:05.961Z,16.40
2022-10-07T12:08:36.509Z,16.40
2022-10-07T12:11:47.133Z,16.40
2022-10-07T12:14:44.456Z,16.30
2022-10-07T12:17:21.541Z,16.10
2022-10-07T12:20:30.475Z,16.00
2022-10-07T12:23:39.480Z,16.00
2022-10-07T12:26:53.744Z,16.00
2022-10-07T12:29:31.803Z,16.00
2022-10-07T12:32:02.118Z,16.00
2022-10-07T12:34:40.275Z,16.00
2022-10-07T12:37:37.546Z,16.00
2022-10-07T12:40:17.122Z,16.10
2022-10-07T12:42:52.851Z,16.20
2022-10-07T12:45:23.448Z,16.20
2022-10-07T12:47:56.981Z,16.10
2022-10-07T12:50:26.501Z,16.10
2022-10-07T12:52:58.826Z,16.10
2022-10-07T12:55:32.795Z,16.10
2022-10-07T12:58:15.819Z,16.10
2022-10-07T13:00:54.670Z,16.10
2022-10-07T13:04:00.763Z,16.00
2022-10-07T13:07:06.205Z,16.00
2022-10-07T13:10:08.065Z,16.00
2022-10-07T13:12:47.873Z,15.90
2022-10-07T13:15:27.894Z,15.90
2022-10-07T13:18:02.111Z,15.90
2022-10-07T13:20:41.598Z,15.90
2022-10-07T13:23:15.976Z,15.90
2022-10-07T13:25:50.357Z,16.00
2022-10-07T13:28:22.297Z,16.00
2022-10-07T13:30:52.031Z,16.00
2022-10-07T13:33:26.453Z,16.00
2022-10-07T13:36:08.474Z,16.00
2022-10-07T13:38:37.036Z,15.90
2022-10-07T13:41:09.165Z,15.90
2022-10-07T13:43:38.581Z,15.90
2022-10-07T13:46:10.053Z,15.80
2022-10-07T13:48:45.385Z,15.80
2022-10-07T13:51:27.989Z,15.80
2022-10-07T13:53:58.824Z,15.90
2022-10-07T13:56:30.915Z,16.00
2022-10-07T13:58:59.578Z,16.00
2022-10-07T14:01:30.339Z,16.10
2022-10-07T14:04:21.969Z,16.10
2022-10-07T14:06:55.890Z,16.20
2022-10-07T14:09:34.426Z,16.20
2022-10-07T14:12:05.716Z,16.20
2022-10-07T14:14:37.184Z,16.10
2022-10-07T14:17:12.124Z,16.10
2022-10-07T14:19:40.493Z,16.20
2022-10-07T14:22:19.818Z,16.20
2022-10-07T14:24:56.129Z,16.20
2022-10-07T14:27:54.555Z,16.10
2022-10-07T14:30:28.077Z,16.10
2022-10-07T14:33:20.128Z,16.00
2022-10-07T14:35:48.615Z,16.00
2022-10-07T14:38:29.419Z,16.00
2022-10-07T14:40:57.665Z,15.90
2022-10-07T14:43:25.996Z,16.00
2022-10-07T14:45:54.113Z,15.90
2022-10-07T14:48:22.167Z,15.90
2022-10-07T14:50:51.867Z,15.90
2022-10-07T14:53:19.879Z,16.00
2022-10-07T14:55:49.437Z,16.00
2022-10-07T14:58:17.522Z,16.10
2022-10-07T15:00:45.568Z,16.10
2022-10-07T15:03:13.702Z,16.10
2022-10-07T15:05:41.692Z,16.20
2022-10-07T15:08:11.793Z,16.20
2022-10-07T15:10:41.195Z,16.10
2022-10-07T15:13:13.425Z,16.20
2022-10-07T15:15:42.912Z,16.20
2022-10-07T15:18:11.760Z,15.90
2022-10-07T15:20:40.484Z,15.90
2022-10-07T15:23:09.101Z,15.90
2022-10-07T15:25:42.567Z,15.90
2022-10-07T15:28:11.947Z,15.80
2022-10-07T15:30:39.971Z,15.80
2022-10-07T15:33:08.592Z,15.80
2022-10-07T15:35:36.789Z,15.80
2022-10-07T15:38:04.698Z,15.80
2022-10-07T15:40:32.682Z,15.70
2022-10-07T15:43:00.964Z,15.70
2022-10-07T15:45:30.306Z,15.70
2022-10-07T15:48:00.660Z,15.70
2022-10-07T15:50:28.817Z,15.70
2022-10-07T15:52:57.023Z,15.60
2022-10-07T15:55:25.405Z,15.60
2022-10-07T15:57:53.600Z,15.60
2022-10-07T16:00:22.026Z,15.50
2022-10-07T16:02:51.784Z,15.50
2022-10-07T16:05:19.808Z,15.40
2022-10-07T16:07:47.794Z,15.40
2022-10-07T16:10:15.917Z,15.40
2022-10-07T16:12:44.138Z,15.40
2022-10-07T16:15:12.393Z,15.30
2022-10-07T16:17:40.283Z,15.30
2022-10-07T16:20:11.621Z,15.30
2022-10-07T16:22:39.762Z,15.20
2022-10-07T16:25:08.311Z,15.20
2022-10-07T16:27:50.134Z,15.20
2022-10-07T16:30:35.970Z,15.20
2022-10-07T16:33:03.897Z,15.20
2022-10-07T16:35:33.429Z,15.10
2022-10-07T16:38:02.292Z,15.10
2022-10-07T16:40:30.205Z,15.10
2022-10-07T16:42:59.580Z,15.10
2022-10-07T16:45:27.823Z,15.00
2022-10-07T16:47:56.346Z,15.00
2022-10-07T16:50:24.273Z,15.00
2022-10-07T16:52:53.851Z,15.00
2022-10-07T16:55:21.866Z,15.00
2022-10-07T16:57:49.850Z,15.10
2022-10-07T17:00:18.135Z,15.10
2022-10-07T17:02:46.201Z,15.20
2022-10-07T17:05:14.273Z,15.10
2022-10-07T17:07:42.404Z,15.20
2022-10-07T17:10:12.070Z,15.20
2022-10-07T17:12:39.931Z,15.20
2022-10-07T17:15:09.287Z,15.20
2022-10-07T17:17:37.224Z,15.10
2022-10-07T17:20:05.704Z,15.00
2022-10-07T17:22:34.782Z,15.00
2022-10-07T17:25:03.981Z,15.10
2022-10-07T17:27:33.321Z,15.10
2022-10-07T17:30:01.265Z,15.10
2022-10-07T17:32:29.539Z,15.10
2022-10-07T17:34:57.459Z,15.10
2022-10-07T17:37:26.700Z,15.10
2022-10-07T17:39:54.733Z,15.00
2022-10-07T17:42:22.658Z,15.00
2022-10-07T17:44:51.978Z,15.00
2022-10-07T17:47:19.985Z,15.10
2022-10-07T17:49:47.879Z,15.10
2022-10-07T17:52:15.837Z,15.10
2022-10-07T17:54:43.925Z,15.00
2022-10-07T17:57:12.011Z,15.10
2022-10-07T17:59:40.192Z,15.20
2022-10-07T18:02:10.419Z,15.20
2022-10-07T18:04:38.521Z,15.20
2022-10-07T18:07:06.590Z,15.30
2022-10-07T18:09:34.501Z,15.30
2022-10-07T18:12:19.856Z,15.30
2022-10-07T18:15:05.112Z,15.30
2022-10-07T18:17:36.034Z,15.30
2022-10-07T18:20:06.346Z,15.30
2022-10-07T18:22:34.691Z,15.30
2022-10-07T18:25:02.923Z,15.30
2022-10-07T18:27:31.091Z,15.30
2022-10-07T18:30:00.331Z,15.30
2022-10-07T18:32:28.404Z,15.30
2022-10-07T18:34:57.840Z,15.20
2022-10-07T18:37:25.809Z,15.20
2022-10-07T18:39:53.774Z,15.20
2022-10-07T18:42:21.669Z,15.10
2022-10-07T18:44:50.684Z,15.20
2022-10-07T18:47:18.648Z,15.10
2022-10-07T18:50:07.694Z,15.10
2022-10-07T18:52:36.917Z,15.10
2022-10-07T18:55:05.362Z,15.10
2022-10-07T18:57:33.373Z,15.10
2022-10-07T19:00:01.225Z,15.00
2022-10-07T19:02:29.107Z,15.00
2022-10-07T19:04:57.241Z,15.00
2022-10-07T19:07:28.769Z,15.00
2022-10-07T19:09:56.642Z,14.90
2022-10-07T19:12:41.953Z,14.90
2022-10-07T19:15:10.662Z,14.90
2022-10-07T19:17:38.599Z,14.90
2022-10-07T19:20:07.148Z,14.90
2022-10-07T19:22:36.414Z,14.90
2022-10-07T19:25:24.448Z,14.90
2022-10-07T19:27:52.314Z,14.90
2022-10-07T19:30:20.245Z,14.90
2022-10-07T19:32:48.130Z,14.90
2022-10-07T19:35:16.041Z,14.80
2022-10-07T19:37:45.632Z,14.90
2022-10-07T19:40:13.780Z,14.90
2022-10-07T19:42:41.855Z,14.90
2022-10-07T19:45:11.235Z,14.90
2022-10-07T19:47:39.226Z,14.90
2022-10-07T19:50:07.938Z,14.90
2022-10-07T19:52:36.014Z,14.90
2022-10-07T19:55:05.754Z,14.90
2022-10-07T19:57:33.678Z,14.90
2022-10-07T20:00:01.593Z,14.90
2022-10-07T20:02:29.519Z,14.90
2022-10-07T20:04:58.298Z,14.90
2022-10-07T20:07:26.579Z,14.90
2022-10-07T20:09:54.590Z,14.90
2022-10-07T20:12:23.864Z,14.90
2022-10-07T20:14:51.985Z,14.90
2022-10-07T20:17:20.035Z,14.90
2022-10-07T20:19:47.945Z,14.90
2022-10-07T20:22:16.578Z,14.90
2022-10-07T20:24:44.549Z,14.90
2022-10-07T20:27:12.588Z,14.90
2022-10-07T20:29:55.842Z,14.90
2022-10-07T20:32:24.243Z,14.90
2022-10-07T20:34:52.636Z,14.80
2022-10-07T20:37:21.078Z,14.80
2022-10-07T20:40:06.287Z,14.90
2022-10-07T20:42:34.960Z,14.80
2022-10-07T20:45:04.449Z,14.90
2022-10-07T20:47:35.151Z,14.80
2022-10-07T20:50:03.790Z,14.80
2022-10-07T20:52:33.414Z,14.70
2022-10-07T20:55:01.600Z,14.80
2022-10-07T20:57:33.722Z,14.70
2022-10-07T21:00:01.845Z,14.70
2022-10-07T21:02:31.316Z,14.70
2022-10-07T21:04:59.754Z,14.70
2022-10-07T21:07:27.702Z,14.70
2022-10-07T21:09:58.099Z,14.70
2022-10-07T21:12:26.011Z,14.70
2022-10-07T21:14:55.070Z,14.70
2022-10-07T21:17:24.856Z,14.60
2022-10-07T21:19:55.846Z,14.60
2022-10-07T21:22:25.443Z,14.60
2022-10-07T21:24:53.469Z,14.60
2022-10-07T21:27:21.414Z,14.50
2022-10-07T21:29:49.354Z,14.50
2022-10-07T21:32:18.635Z,14.50
2022-10-07T21:34:46.691Z,14.50
2022-10-07T21:37:16.032Z,14.50
2022-10-07T21:39:43.974Z,14.50
2022-10-07T21:42:11.827Z,14.50
2022-10-07T21:44:40.150Z,14.50
2022-10-07T21:47:28.498Z,14.50
2022-10-07T21:50:16.934Z,14.50
2022-10-07T21:52:46.441Z,14.40
2022-10-07T21:55:14.724Z,14.40
2022-10-07T21:57:42.954Z,14.40
2022-10-07T22:00:12.610Z,14.40
2022-10-07T22:02:40.638Z,14.40
2022-10-07T22:05:11.329Z,14.30
2022-10-07T22:07:56.672Z,14.30
2022-10-07T22:10:26.181Z,14.30
2022-10-07T22:12:54.075Z,14.30
2022-10-07T22:15:23.716Z,14.30
2022-10-07T22:17:51.658Z,14.30
2022-10-07T22:20:19.583Z,14.30
2022-10-07T22:22:48.866Z,14.30
2022-10-07T22:25:17.100Z,14.30
2022-10-07T22:27:48.755Z,14.20
2022-10-07T22:30:17.390Z,14.20
2022-10-07T22:32:45.698Z,14.20
2022-10-07T22:35:30.136Z,14.20
2022-10-07T22:37:58.669Z,14.20
2022-10-07T22:40:27.029Z,14.20
2022-10-07T22:42:56.411Z,14.20
2022-10-07T22:45:24.365Z,14.20
2022-10-07T22:47:52.344Z,14.20
2022-10-07T22:50:20.439Z,14.20
2022-10-07T22:52:49.181Z,14.10
2022-10-07T22:55:18.083Z,14.10
2022-10-07T22:57:46.127Z,14.10
2022-10-07T23:00:16.851Z,14.10
2022-10-07T23:02:45.678Z,14.10
2022-10-07T23:05:14.143Z,14.10
2022-10-07T23:07:42.217Z,14.10
2022-10-07T23:10:11.099Z,14.10
2022-10-07T23:12:39.167Z,14.10
2022-10-07T23:15:08.172Z,14.10
2022-10-07T23:17:37.683Z,14.10
2022-10-07T23:20:06.559Z,14.10
2022-10-07T23:22:35.437Z,14.10
2022-10-07T23:25:04.403Z,14.10
2022-10-07T23:27:32.470Z,14.00
2022-10-07T23:30:00.558Z,14.10
2022-10-07T23:32:28.605Z,14.00
2022-10-07T23:34:58.076Z,14.00
2022-10-07T23:37:26.310Z,14.00
2022-10-07T23:39:54.361Z,14.00
2022-10-07T23:42:23.417Z,14.00
2022-10-07T23:44:51.536Z,14.00
2022-10-07T23:47:22.493Z,14.00
2022-10-07T23:49:50.578Z,14.00
2022-10-07T23:52:20.119Z,14.00
2022-10-07T23:54:48.227Z,14.00
2022-10-07T23:57:16.398Z,14.00
2022-10-07T23:59:44.486Z,14.00
